JULY 28, 2017

 

METAR SMJP 281200Z 10006KT 9999 SCT010 27/24 Q1014 NOSIG=

METAR SMZO 281200Z 13004KT 9999 FEW015 28/25 Q1014 NOSIG=

METAR SMNI 281200Z 09005KT 9999 SCT015 28/24 Q1015=

METAR SMST 281200Z 00000KT 9999 BKN010 25/23 Q////=